createdAt,value
2017-02-13T02:10:41.192Z,1023.03
2017-02-13T03:26:11.784Z,1023.14
2017-02-13T03:42:09.675Z,1023.1
2017-02-13T03:48:38.446Z,1023
2017-02-13T03:51:24.283Z,1022.98
2017-02-13T03:52:04.808Z,1023
2017-02-13T03:52:45.338Z,1022.95
2017-02-13T03:56:22.850Z,1023
2017-02-13T03:57:03.416Z,1023.08
2017-02-13T03:59:39.198Z,1023.11
2017-02-13T04:00:19.734Z,1023.16
2017-02-13T04:09:34.902Z,1023.21
2017-02-13T04:10:15.451Z,1023.27
2017-02-13T04:10:56.005Z,1023.24
2017-02-13T04:11:36.543Z,1023.27
2017-02-13T04:14:01.689Z,1023.21
2017-02-13T04:14:42.240Z,1023.18
2017-02-13T04:19:19.636Z,1023.1
2017-02-13T04:38:51.184Z,1023.12
2017-02-13T04:39:31.693Z,1023.19
2017-02-13T04:40:12.391Z,1023.22
2017-02-13T04:40:52.901Z,1023.19
2017-02-13T04:41:33.493Z,1023.16
2017-02-13T04:42:14.380Z,1023.17
2017-02-13T04:42:54.899Z,1023.31
2017-02-13T04:43:36.566Z,1023.24
2017-02-13T04:44:17.068Z,1023.25
2017-02-13T04:44:57.702Z,1023.33
2017-02-13T05:15:19.196Z,1023.16
2017-02-13T05:15:59.702Z,1023.16
2017-02-13T05:16:40.228Z,1023.15
2017-02-13T05:17:20.762Z,1023.11
2017-02-13T05:18:01.289Z,1023.13
2017-02-13T05:30:58.747Z,1023
2017-02-13T05:31:39.276Z,1023
2017-02-13T05:32:19.793Z,1022.96
2017-02-13T05:33:00.316Z,1022.98
2017-02-13T05:33:40.847Z,1022.94
2017-02-13T05:34:21.369Z,1022.93
2017-02-13T05:36:35.581Z,1022.93
2017-02-13T05:37:16.154Z,1022.89
2017-02-13T05:37:57.393Z,1022.84
2017-02-13T05:38:40.369Z,1022.85
2017-02-13T05:39:20.921Z,1022.83
2017-02-13T05:40:01.438Z,1022.78
2017-02-13T05:40:42.006Z,1022.84
2017-02-13T05:41:22.475Z,1022.86
2017-02-13T05:42:03.006Z,1022.84
2017-02-13T05:42:43.540Z,1022.84
2017-02-13T05:43:24.028Z,1022.83
2017-02-13T05:44:06.443Z,1022.8
2017-02-13T05:44:50.621Z,1022.83
2017-02-13T05:45:44.062Z,1022.84
2017-02-13T05:47:59.702Z,1022.89
2017-02-13T05:48:40.242Z,1022.85
2017-02-13T05:49:20.758Z,1022.85
2017-02-13T05:50:01.284Z,1022.89
2017-02-13T05:50:41.822Z,1022.89
2017-02-13T05:51:22.347Z,1022.87
2017-02-13T05:52:02.884Z,1022.94
2017-02-13T05:52:43.410Z,1022.92
2017-02-13T05:53:23.925Z,1022.91
2017-02-13T05:54:04.454Z,1022.88
2017-02-13T05:54:44.985Z,1022.95
2017-02-13T05:55:25.483Z,1022.93
2017-02-13T05:56:06.007Z,1022.91
2017-02-13T05:56:46.508Z,1022.9
2017-02-13T05:57:27.025Z,1022.96
2017-02-13T05:58:07.606Z,1022.89
2017-02-13T05:58:48.105Z,1022.95
2017-02-13T05:59:28.666Z,1022.91
2017-02-13T06:00:10.979Z,1022.91
2017-02-13T06:00:52.300Z,1022.88
2017-02-13T06:01:32.826Z,1022.86
2017-02-13T06:02:13.362Z,1022.85
2017-02-13T06:02:53.894Z,1022.85
2017-02-13T06:03:34.407Z,1022.83
2017-02-13T06:04:14.926Z,1022.85
2017-02-13T06:04:55.431Z,1022.8
2017-02-13T06:05:35.958Z,1022.85
2017-02-13T06:06:16.507Z,1022.85
2017-02-13T06:06:57.035Z,1022.87
2017-02-13T06:07:37.570Z,1022.84
2017-02-13T06:08:18.092Z,1022.87
2017-02-13T06:08:58.622Z,1022.85
2017-02-13T06:09:39.136Z,1022.87
2017-02-13T06:10:19.672Z,1022.91
2017-02-13T06:11:00.203Z,1022.9
2017-02-13T06:11:40.729Z,1022.89
2017-02-13T06:12:21.258Z,1022.92
2017-02-13T06:13:01.820Z,1022.92
2017-02-13T06:13:42.367Z,1022.94
2017-02-13T06:14:23.817Z,1023
2017-02-13T06:15:07.435Z,1022.94
2017-02-13T06:15:49.723Z,1022.93
2017-02-13T06:16:30.271Z,1022.99
2017-02-13T06:17:10.779Z,1022.94
2017-02-13T06:17:51.283Z,1022.94
2017-02-13T06:18:31.819Z,1023.04
2017-02-13T06:19:12.336Z,1022.92
2017-02-13T06:19:52.876Z,1022.97
2017-02-13T06:20:33.412Z,1023
2017-02-13T06:21:13.941Z,1022.97
2017-02-13T06:21:54.470Z,1023.02
2017-02-13T06:22:35.014Z,1023.02
2017-02-13T06:23:15.536Z,1022.98
2017-02-13T06:23:56.062Z,1022.98
2017-02-13T06:24:36.600Z,1023.03
2017-02-13T06:25:17.172Z,1023.01
2017-02-13T06:25:57.696Z,1023.01
2017-02-13T06:26:38.232Z,1023.03
2017-02-13T06:27:18.752Z,1023.09
2017-02-13T06:27:59.290Z,1023.05
2017-02-13T06:28:39.803Z,1023.1
2017-02-13T06:29:20.357Z,1023.03
2017-02-13T06:30:00.878Z,1023.05
2017-02-13T06:30:41.396Z,1023.04
2017-02-13T06:31:21.925Z,1023.04
2017-02-13T06:32:02.486Z,1023.09
2017-02-13T06:32:43.065Z,1023.02
2017-02-13T06:33:23.594Z,1023.04
2017-02-13T06:34:04.122Z,1023.09
2017-02-13T06:34:44.687Z,1023.05
2017-02-13T06:35:25.210Z,1023.17
2017-02-13T06:36:05.756Z,1023.06
2017-02-13T06:36:46.265Z,1023.11
2017-02-13T06:37:26.744Z,1023.08
2017-02-13T06:38:07.226Z,1023.07
2017-02-13T06:38:47.761Z,1023.07
2017-02-13T06:39:28.272Z,1023.07
2017-02-13T06:40:08.755Z,1023.04
2017-02-13T06:40:49.258Z,1023.09
2017-02-13T06:41:29.732Z,1023.12
2017-02-13T06:42:10.242Z,1023.15
2017-02-13T06:42:50.727Z,1023.09
2017-02-13T06:43:31.210Z,1023.14
2017-02-13T06:44:11.684Z,1023.17
2017-02-13T06:44:52.167Z,1023.15
2017-02-13T06:45:32.671Z,1023.21
2017-02-13T06:46:13.234Z,1023.23
2017-02-13T06:46:53.761Z,1023.17
2017-02-13T06:47:34.288Z,1023.21
2017-02-13T06:48:14.796Z,1023.2
2017-02-13T06:48:55.325Z,1023.24
2017-02-13T06:49:35.864Z,1023.25
2017-02-13T06:50:16.446Z,1023.25
2017-02-13T06:50:56.954Z,1023.24
2017-02-13T06:51:37.493Z,1023.24
2017-02-13T06:52:18.024Z,1023.31
2017-02-13T06:52:58.552Z,1023.38
2017-02-13T06:53:39.063Z,1023.32
2017-02-13T06:54:19.592Z,1023.36
2017-02-13T06:55:00.131Z,1023.3
2017-02-13T06:55:40.649Z,1023.31
2017-02-13T06:56:21.158Z,1023.33
2017-02-13T06:57:01.657Z,1023.35
2017-02-13T06:57:42.158Z,1023.43
2017-02-13T06:58:22.691Z,1023.42
2017-02-13T06:59:03.237Z,1023.4
2017-02-13T06:59:43.785Z,1023.43
2017-02-13T07:00:24.263Z,1023.36
2017-02-13T07:01:04.756Z,1023.4
2017-02-13T07:01:45.234Z,1023.41
2017-02-13T07:02:25.706Z,1023.4
2017-02-13T07:03:06.197Z,1023.36
2017-02-13T07:03:46.661Z,1023.35
2017-02-13T07:04:27.155Z,1023.39
2017-02-13T07:05:07.640Z,1023.35
2017-02-13T07:05:48.116Z,1023.36
2017-02-13T07:06:28.600Z,1023.41
2017-02-13T07:07:09.131Z,1023.39
2017-02-13T07:07:49.666Z,1023.42
2017-02-13T07:08:30.182Z,1023.41
2017-02-13T07:09:10.728Z,1023.41
2017-02-13T07:09:51.191Z,1023.44
2017-02-13T07:10:31.703Z,1023.4
2017-02-13T07:11:12.227Z,1023.48
2017-02-13T07:11:52.739Z,1023.43
2017-02-13T07:12:33.274Z,1023.5
2017-02-13T07:13:13.803Z,1023.52
2017-02-13T07:13:54.328Z,1023.5
2017-02-13T07:14:34.870Z,1023.47
2017-02-13T07:15:15.389Z,1023.45
2017-02-13T07:15:55.923Z,1023.5
2017-02-13T07:16:37.002Z,1023.48
2017-02-13T07:17:17.623Z,1023.45
2017-02-13T07:17:58.146Z,1023.51
2017-02-13T07:18:38.697Z,1023.54
2017-02-13T07:19:19.280Z,1023.51
2017-02-13T07:19:59.809Z,1023.48
2017-02-13T07:20:40.348Z,1023.5
2017-02-13T07:21:20.879Z,1023.48
2017-02-13T07:22:01.405Z,1023.49
2017-02-13T07:22:41.951Z,1023.48
2017-02-13T07:23:22.429Z,1023.48
2017-02-13T07:24:02.974Z,1023.54
2017-02-13T07:24:43.588Z,1023.5
2017-02-13T07:25:24.080Z,1023.54
2017-02-13T07:26:04.617Z,1023.51
2017-02-13T07:26:45.080Z,1023.45
2017-02-13T07:27:25.543Z,1023.48
2017-02-13T07:28:06.027Z,1023.44
2017-02-13T07:28:46.570Z,1023.45
2017-02-13T07:29:27.009Z,1023.45
2017-02-13T07:30:07.564Z,1023.38
2017-02-13T07:30:48.163Z,1023.41
2017-02-13T07:31:28.676Z,1023.49
2017-02-13T07:32:09.167Z,1023.58
2017-02-13T07:32:49.644Z,1023.41
2017-02-13T07:33:30.149Z,1023.41
2017-02-13T07:34:10.621Z,1023.39
2017-02-13T07:34:51.085Z,1023.38
2017-02-13T07:35:31.603Z,1023.38
2017-02-13T07:36:12.090Z,1023.44
2017-02-13T07:36:52.538Z,1023.4
2017-02-13T07:37:33.045Z,1023.41
2017-02-13T07:38:13.507Z,1023.44
2017-02-13T07:38:53.985Z,1023.38
2017-02-13T07:39:34.473Z,1023.4
2017-02-13T07:40:15.002Z,1023.36
2017-02-13T07:40:55.487Z,1023.4
2017-02-13T07:41:36.047Z,1023.4
2017-02-13T07:42:16.531Z,1023.41
2017-02-13T07:42:57.013Z,1023.3
2017-02-13T07:43:37.495Z,1023.35
2017-02-13T07:44:17.991Z,1023.34
2017-02-13T07:44:58.461Z,1023.35
2017-02-13T07:45:39.034Z,1023.41
2017-02-13T07:46:19.524Z,1023.45
2017-02-13T07:46:59.988Z,1023.43
2017-02-13T07:47:40.553Z,1023.41
2017-02-13T07:48:21.104Z,1023.45
2017-02-13T07:49:01.530Z,1023.49
2017-02-13T07:49:42.058Z,1023.48
2017-02-13T07:50:22.529Z,1023.47
2017-02-13T07:51:03.000Z,1023.46
2017-02-13T07:51:43.501Z,1023.41
2017-02-13T07:52:23.984Z,1023.46
2017-02-13T07:53:04.514Z,1023.38
2017-02-13T07:53:44.998Z,1023.32
2017-02-13T07:54:30.253Z,1023.32
2017-02-13T07:55:10.557Z,1023.36
2017-02-13T07:55:51.105Z,1023.36
2017-02-13T07:56:31.630Z,1023.31
2017-02-13T07:57:12.176Z,1023.36
2017-02-13T07:57:52.710Z,1023.37
2017-02-13T07:58:33.258Z,1023.35
2017-02-13T07:59:13.801Z,1023.36
2017-02-13T07:59:54.316Z,1023.43
2017-02-13T08:00:34.841Z,1023.42
2017-02-13T08:01:15.393Z,1023.42
2017-02-13T08:01:55.948Z,1023.44
2017-02-13T08:02:36.478Z,1023.48
2017-02-13T08:03:16.998Z,1023.4
2017-02-13T08:03:57.544Z,1023.36
2017-02-13T08:04:38.054Z,1023.44
2017-02-13T08:05:18.607Z,1023.43
2017-02-13T08:05:59.129Z,1023.42
2017-02-13T08:06:39.662Z,1023.35
2017-02-13T08:07:20.187Z,1023.43
2017-02-13T08:08:00.642Z,1023.43
2017-02-13T08:08:41.121Z,1023.31
2017-02-13T08:09:21.661Z,1023.35
2017-02-13T08:10:02.204Z,1023.37
2017-02-13T08:10:42.717Z,1023.42
2017-02-13T08:11:23.268Z,1023.36
2017-02-13T08:12:03.802Z,1023.4
2017-02-13T08:12:44.313Z,1023.39
2017-02-13T08:13:24.849Z,1023.43
2017-02-13T08:14:05.369Z,1023.37
2017-02-13T08:14:45.836Z,1023.33
2017-02-13T08:15:26.320Z,1023.37
2017-02-13T08:16:06.800Z,1023.39
2017-02-13T08:16:47.449Z,1023.37
2017-02-13T08:17:27.922Z,1023.38
2017-02-13T08:18:08.466Z,1023.37
2017-02-13T08:18:48.969Z,1023.4
2017-02-13T08:19:29.475Z,1023.4
2017-02-13T08:20:10.007Z,1023.41
2017-02-13T08:20:50.495Z,1023.43
2017-02-13T08:21:31.042Z,1023.49
2017-02-13T08:22:11.570Z,1023.5
2017-02-13T08:22:52.027Z,1023.4
2017-02-13T08:23:32.525Z,1023.42
2017-02-13T08:24:13.064Z,1023.42
2017-02-13T08:24:53.601Z,1023.41
2017-02-13T08:25:34.126Z,1023.43
2017-02-13T08:26:14.635Z,1023.38
2017-02-13T08:26:55.154Z,1023.38
2017-02-13T08:27:35.699Z,1023.4
2017-02-13T08:28:16.245Z,1023.38
2017-02-13T08:28:56.763Z,1023.37
2017-02-13T08:29:37.280Z,1023.39
2017-02-13T08:30:17.804Z,1023.4
2017-02-13T08:30:58.328Z,1023.36
2017-02-13T08:31:38.868Z,1023.37
2017-02-13T08:32:19.390Z,1023.39
2017-02-13T08:32:59.931Z,1023.3
2017-02-13T08:33:40.471Z,1023.33
2017-02-13T08:34:20.991Z,1023.33
2017-02-13T08:35:01.456Z,1023.32
2017-02-13T08:35:41.964Z,1023.32
2017-02-13T08:36:22.439Z,1023.24
2017-02-13T08:37:02.923Z,1023.32
2017-02-13T08:37:45.113Z,1023.28
2017-02-13T08:38:25.568Z,1023.31
2017-02-13T08:39:06.063Z,1023.31
2017-02-13T08:39:46.557Z,1023.32
2017-02-13T08:40:27.020Z,1023.28
2017-02-13T08:41:07.549Z,1023.39
2017-02-13T08:41:48.025Z,1023.31
2017-02-13T08:42:28.554Z,1023.31
2017-02-13T08:43:09.033Z,1023.34
2017-02-13T08:43:49.569Z,1023.3
2017-02-13T08:44:30.090Z,1023.3
2017-02-13T08:45:10.606Z,1023.31
2017-02-13T08:45:51.154Z,1023.28
2017-02-13T08:46:31.670Z,1023.27
2017-02-13T08:47:12.191Z,1023.27
2017-02-13T08:47:52.708Z,1023.27
2017-02-13T08:48:33.252Z,1023.23
2017-02-13T08:49:13.763Z,1023.24
2017-02-13T08:49:54.283Z,1023.16
2017-02-13T08:50:34.808Z,1023.18
2017-02-13T08:51:15.342Z,1023.16
2017-02-13T08:51:55.867Z,1023.24
2017-02-13T08:52:36.392Z,1023.19
2017-02-13T08:53:16.957Z,1023.25
2017-02-13T08:53:57.495Z,1023.23
2017-02-13T08:54:38.009Z,1023.16
2017-02-13T08:55:18.559Z,1023.22
2017-02-13T08:55:59.120Z,1023.17
2017-02-13T08:56:39.631Z,1023.22
2017-02-13T08:57:20.119Z,1023.22
2017-02-13T08:58:00.589Z,1023.21
2017-02-13T08:58:41.107Z,1023.21
2017-02-13T08:59:21.594Z,1023.19
2017-02-13T09:00:02.072Z,1023.17
2017-02-13T09:00:42.585Z,1023.2
2017-02-13T09:01:23.181Z,1023.19
2017-02-13T09:02:03.674Z,1023.21
2017-02-13T09:02:44.152Z,1023.22
2017-02-13T09:03:24.690Z,1023.2
2017-02-13T09:04:05.202Z,1023.21
2017-02-13T09:04:45.727Z,1023.14
2017-02-13T09:05:26.246Z,1023.2
2017-02-13T09:06:06.800Z,1023.16
2017-02-13T09:06:47.348Z,1023.14
2017-02-13T09:07:27.885Z,1023.08
2017-02-13T09:08:08.376Z,1023.15
2017-02-13T09:08:48.945Z,1023.12
2017-02-13T09:09:29.546Z,1023.16
2017-02-13T09:10:10.018Z,1023.11
2017-02-13T09:10:50.476Z,1023.17
2017-02-13T09:11:30.975Z,1023.19
2017-02-13T09:12:11.437Z,1023.16
2017-02-13T09:12:51.990Z,1023.18
2017-02-13T09:13:32.510Z,1023.23
2017-02-13T09:14:13.028Z,1023.22
2017-02-13T09:14:53.547Z,1023.24
2017-02-13T09:15:34.074Z,1023.19
2017-02-13T09:16:14.602Z,1023.15
2017-02-13T09:16:55.128Z,1023.14
2017-02-13T09:17:35.651Z,1023.2
2017-02-13T09:18:16.171Z,1023.17
2017-02-13T09:18:56.713Z,1023.11
2017-02-13T09:19:37.234Z,1023.09
2017-02-13T09:20:17.765Z,1023.12
2017-02-13T09:20:58.302Z,1023.12
2017-02-13T09:21:38.836Z,1023.12
2017-02-13T09:22:19.357Z,1023.17
2017-02-13T09:22:59.883Z,1023.1
2017-02-13T09:23:40.415Z,1023.07
2017-02-13T09:24:20.978Z,1023.05
2017-02-13T09:25:01.504Z,1023.06
2017-02-13T09:25:42.023Z,1023.06
2017-02-13T09:26:22.555Z,1023.11
2017-02-13T09:27:03.085Z,1023.05
2017-02-13T09:27:43.608Z,1023.06
2017-02-13T09:28:24.119Z,1023.13
2017-02-13T09:29:04.636Z,1023.11
2017-02-13T09:29:45.197Z,1023.09
2017-02-13T09:30:25.751Z,1023.09
2017-02-13T09:31:06.322Z,1023.17
2017-02-13T09:31:46.840Z,1023.14
2017-02-13T09:32:27.360Z,1023.14
2017-02-13T09:33:07.874Z,1023.14
2017-02-13T09:33:48.405Z,1023.13
2017-02-13T09:34:28.934Z,1023.13
2017-02-13T09:35:09.467Z,1023.09
2017-02-13T09:35:50.013Z,1023.11
2017-02-13T09:36:30.573Z,1023.06
2017-02-13T09:37:11.116Z,1023.09
2017-02-13T09:37:51.664Z,1023.08
2017-02-13T09:38:32.218Z,1023.08
2017-02-13T09:39:12.755Z,1023.09
2017-02-13T09:39:53.244Z,1023.06
2017-02-13T09:40:33.731Z,1023.09
2017-02-13T09:41:14.233Z,1023.03
2017-02-13T09:41:54.739Z,1023.07
2017-02-13T09:42:35.266Z,1023.05
2017-02-13T09:43:15.728Z,1023.04
2017-02-13T09:43:56.225Z,1022.98
2017-02-13T09:44:36.755Z,1023.05
2017-02-13T09:45:17.233Z,1023.01
2017-02-13T09:45:57.743Z,1023.01
2017-02-13T09:46:38.236Z,1023
2017-02-13T09:47:18.760Z,1023.06
2017-02-13T09:47:59.276Z,1023.1
2017-02-13T09:48:39.806Z,1023
2017-02-13T09:49:20.340Z,1023.04
2017-02-13T09:50:00.862Z,1023.01
2017-02-13T09:50:41.380Z,1023.06
2017-02-13T09:51:21.895Z,1023.03
2017-02-13T09:52:02.412Z,1023.03
2017-02-13T09:52:42.957Z,1023.09
2017-02-13T09:53:23.469Z,1023.05
2017-02-13T09:54:03.952Z,1023.06
2017-02-13T09:54:44.437Z,1023.04
2017-02-13T09:55:24.961Z,1023.06
2017-02-13T09:56:05.478Z,1023.08
2017-02-13T09:56:45.995Z,1023.07
2017-02-13T09:57:26.525Z,1023.07
2017-02-13T09:58:07.067Z,1023.02
2017-02-13T09:58:47.599Z,1023.09
2017-02-13T09:59:28.099Z,1023.07
2017-02-13T10:00:08.646Z,1023.06
2017-02-13T10:00:49.200Z,1023.06
2017-02-13T10:01:29.737Z,1023.01
2017-02-13T10:02:10.264Z,1023.03
2017-02-13T10:02:50.781Z,1023.09
2017-02-13T10:03:31.314Z,1023.04
2017-02-13T10:04:11.849Z,1023.05
2017-02-13T10:04:52.358Z,1022.99
2017-02-13T10:05:32.845Z,1023.01
2017-02-13T10:06:13.336Z,1022.98
2017-02-13T10:06:53.852Z,1023.02
2017-02-13T10:07:34.392Z,1023.03
2017-02-13T10:08:14.918Z,1022.99
2017-02-13T10:08:55.467Z,1022.97
2017-02-13T10:09:36.017Z,1022.97
2017-02-13T10:10:16.559Z,1022.99
2017-02-13T10:10:57.050Z,1022.97
2017-02-13T10:11:37.532Z,1023.07
2017-02-13T10:12:18.061Z,1023.09
2017-02-13T10:12:58.622Z,1023.04
2017-02-13T10:13:39.143Z,1023.03
2017-02-13T10:14:19.647Z,1023.11
2017-02-13T10:15:00.140Z,1023.12
2017-02-13T10:15:40.605Z,1023.11
2017-02-13T10:16:21.088Z,1023.16
2017-02-13T10:17:01.629Z,1023.16
2017-02-13T10:17:42.110Z,1023.12
2017-02-13T10:18:22.593Z,1023.09
2017-02-13T10:19:03.081Z,1023.12
2017-02-13T10:19:43.608Z,1023.2
2017-02-13T10:20:24.145Z,1023.13
2017-02-13T10:21:04.671Z,1023.12
2017-02-13T10:21:45.186Z,1023.14
2017-02-13T10:22:25.828Z,1023.13
2017-02-13T10:23:06.374Z,1023.1
2017-02-13T10:23:46.893Z,1023.12
2017-02-13T10:24:27.419Z,1023.08
2017-02-13T10:25:07.935Z,1023.03
2017-02-13T10:25:48.472Z,1023.06
2017-02-13T10:26:29.004Z,1023.09
2017-02-13T10:27:09.576Z,1023.08
2017-02-13T10:27:50.120Z,1023.04
2017-02-13T10:28:30.683Z,1023.07
2017-02-13T10:29:11.210Z,1023.06
2017-02-13T10:29:51.780Z,1023.09
2017-02-13T10:30:32.301Z,1023.01
2017-02-13T10:31:12.860Z,1022.98
2017-02-13T10:31:53.397Z,1023.02
2017-02-13T10:32:33.935Z,1023.05
2017-02-13T10:33:14.456Z,1023.02
2017-02-13T10:33:55.023Z,1023
2017-02-13T10:34:35.551Z,1023.02
2017-02-13T10:35:16.129Z,1023.06
2017-02-13T10:35:56.665Z,1022.95
2017-02-13T10:36:37.193Z,1023.05
2017-02-13T10:37:17.652Z,1022.96
2017-02-13T10:37:58.214Z,1022.99
2017-02-13T10:38:38.639Z,1023.05
2017-02-13T10:39:19.136Z,1023
2017-02-13T10:39:59.621Z,1022.96
2017-02-13T10:40:40.166Z,1022.98
2017-02-13T10:41:20.667Z,1023.05
2017-02-13T10:42:01.151Z,1022.99
2017-02-13T10:42:41.667Z,1022.98
2017-02-13T10:43:22.157Z,1022.99
2017-02-13T10:44:02.707Z,1022.99
2017-02-13T10:44:43.262Z,1022.98
2017-02-13T10:45:23.792Z,1023.01
2017-02-13T10:46:04.347Z,1023.01
2017-02-13T10:46:44.920Z,1022.96
2017-02-13T10:47:25.468Z,1022.97
2017-02-13T10:48:05.968Z,1023
2017-02-13T10:48:46.430Z,1022.97
2017-02-13T10:49:26.906Z,1022.96
2017-02-13T10:50:07.408Z,1022.94
2017-02-13T10:50:47.928Z,1022.94
2017-02-13T10:51:28.437Z,1022.9
2017-02-13T10:52:08.963Z,1022.94
2017-02-13T10:52:51.295Z,1022.94
2017-02-13T10:53:31.833Z,1022.86
2017-02-13T10:54:12.345Z,1022.88
2017-02-13T10:54:52.840Z,1022.88
2017-02-13T10:55:33.335Z,1022.93
2017-02-13T10:56:13.829Z,1022.97
2017-02-13T10:56:54.329Z,1022.86
2017-02-13T10:57:34.847Z,1022.84
2017-02-13T10:58:15.376Z,1022.85
2017-02-13T10:58:55.904Z,1022.88
2017-02-13T10:59:36.436Z,1022.89
2017-02-13T11:00:16.998Z,1022.89
2017-02-13T11:00:57.479Z,1022.84
2017-02-13T11:01:38.017Z,1022.84
2017-02-13T11:02:18.544Z,1022.85
2017-02-13T11:02:59.047Z,1022.88
2017-02-13T11:03:39.504Z,1022.89
2017-02-13T11:04:20.012Z,1022.9
2017-02-13T11:05:00.510Z,1022.87
2017-02-13T11:05:41.041Z,1022.85
2017-02-13T11:06:21.542Z,1022.82
2017-02-13T11:07:02.043Z,1022.83
2017-02-13T11:07:42.587Z,1022.82
2017-02-13T11:08:23.076Z,1022.84
2017-02-13T11:09:03.597Z,1022.86
2017-02-13T11:09:44.088Z,1022.84
2017-02-13T11:10:24.607Z,1022.82
2017-02-13T11:11:05.083Z,1022.81
2017-02-13T11:11:45.647Z,1022.72
2017-02-13T11:12:26.113Z,1022.79
2017-02-13T11:13:06.663Z,1022.79
2017-02-13T11:13:47.157Z,1022.71
2017-02-13T11:14:27.662Z,1022.72
2017-02-13T11:15:08.152Z,1022.69
2017-02-13T11:15:48.688Z,1022.69
2017-02-13T11:16:29.166Z,1022.71
2017-02-13T11:17:09.695Z,1022.7
2017-02-13T11:17:50.222Z,1022.68
2017-02-13T11:18:30.736Z,1022.74
2017-02-13T11:19:11.291Z,1022.71
2017-02-13T11:19:51.802Z,1022.65
2017-02-13T11:20:32.351Z,1022.66
2017-02-13T11:21:12.903Z,1022.65
2017-02-13T11:21:53.437Z,1022.66
2017-02-13T11:22:34.004Z,1022.67
2017-02-13T11:23:14.528Z,1022.67
2017-02-13T11:23:55.068Z,1022.68
2017-02-13T11:24:35.592Z,1022.67
2017-02-13T11:25:16.131Z,1022.68
2017-02-13T11:25:56.669Z,1022.69
2017-02-13T11:26:37.199Z,1022.65
2017-02-13T11:27:17.764Z,1022.67
2017-02-13T11:27:58.301Z,1022.61
2017-02-13T11:28:38.835Z,1022.59
2017-02-13T11:29:19.387Z,1022.6
2017-02-13T11:29:59.938Z,1022.57
2017-02-13T11:30:40.478Z,1022.54
2017-02-13T11:31:21.023Z,1022.51
2017-02-13T11:32:01.541Z,1022.54
2017-02-13T11:32:42.077Z,1022.47
2017-02-13T11:33:22.620Z,1022.47
2017-02-13T11:34:03.156Z,1022.53
2017-02-13T11:34:43.686Z,1022.54
2017-02-13T11:35:24.239Z,1022.57
2017-02-13T11:36:04.781Z,1022.56
2017-02-13T11:36:45.301Z,1022.56
2017-02-13T11:37:25.837Z,1022.44
2017-02-13T11:38:06.398Z,1022.5
2017-02-13T11:38:46.920Z,1022.5
2017-02-13T11:39:27.467Z,1022.48
2017-02-13T11:40:08.017Z,1022.43
2017-02-13T11:40:48.594Z,1022.38
2017-02-13T11:41:29.129Z,1022.37
2017-02-13T11:42:09.666Z,1022.38
2017-02-13T11:42:50.174Z,1022.39
2017-02-13T11:43:30.650Z,1022.38
2017-02-13T11:44:11.152Z,1022.32
2017-02-13T11:44:51.643Z,1022.44
2017-02-13T11:45:32.124Z,1022.4
2017-02-13T11:46:12.632Z,1022.38
2017-02-13T11:46:53.159Z,1022.4
2017-02-13T11:47:33.700Z,1022.39
2017-02-13T11:48:14.223Z,1022.37
2017-02-13T11:48:54.756Z,1022.44
2017-02-13T11:49:35.232Z,1022.42
2017-02-13T11:50:15.711Z,1022.42
2017-02-13T11:50:56.221Z,1022.42
2017-02-13T11:51:36.746Z,1022.39
2017-02-13T11:52:17.256Z,1022.41
2017-02-13T11:52:57.770Z,1022.35
2017-02-13T11:53:38.274Z,1022.45
2017-02-13T11:54:18.784Z,1022.43
2017-02-13T11:54:59.323Z,1022.33
2017-02-13T11:55:39.876Z,1022.38
2017-02-13T11:56:20.416Z,1022.31
2017-02-13T11:57:00.911Z,1022.31
2017-02-13T11:57:41.459Z,1022.35
2017-02-13T11:58:21.985Z,1022.35
2017-02-13T11:59:02.524Z,1022.36
2017-02-13T11:59:43.066Z,1022.34
2017-02-13T12:00:23.593Z,1022.31
2017-02-13T12:01:04.098Z,1022.3
2017-02-13T12:01:44.617Z,1022.29
2017-02-13T12:02:25.136Z,1022.32
2017-02-13T12:03:05.657Z,1022.32
2017-02-13T12:03:46.199Z,1022.34
2017-02-13T12:04:26.714Z,1022.29
2017-02-13T12:05:07.227Z,1022.23
2017-02-13T12:05:47.757Z,1022.25
2017-02-13T12:06:28.297Z,1022.26
2017-02-13T12:07:08.830Z,1022.28
2017-02-13T12:07:49.351Z,1022.23
2017-02-13T12:08:29.849Z,1022.3
2017-02-13T12:09:10.371Z,1022.22
2017-02-13T12:09:50.896Z,1022.23
2017-02-13T12:10:31.395Z,1022.26
2017-02-13T12:11:11.933Z,1022.24
2017-02-13T12:11:52.492Z,1022.32
2017-02-13T12:12:33.015Z,1022.31
2017-02-13T12:13:13.591Z,1022.35
2017-02-13T12:13:54.122Z,1022.37
2017-02-13T12:14:34.660Z,1022.34
2017-02-13T12:15:15.178Z,1022.34
2017-02-13T12:15:55.719Z,1022.29
2017-02-13T12:16:36.238Z,1022.21
2017-02-13T12:17:17.663Z,1022.25
2017-02-13T12:17:58.289Z,1022.19
2017-02-13T12:18:40.131Z,1022.22
2017-02-13T12:19:21.305Z,1022.24
2017-02-13T12:20:01.931Z,1022.19
2017-02-13T12:22:20.030Z,1022.14
2017-02-13T12:23:00.547Z,1022.12
2017-02-13T12:23:41.097Z,1022.08
2017-02-13T12:24:21.640Z,1022.13
2017-02-13T12:25:02.167Z,1022.16
2017-02-13T12:25:42.703Z,1022.05
2017-02-13T12:26:23.231Z,1022.11
2017-02-13T12:27:03.781Z,1022.12
2017-02-13T12:27:45.849Z,1022.09
2017-02-13T12:28:26.358Z,1022.08
2017-02-13T12:29:06.873Z,1022.04
2017-02-13T12:29:47.470Z,1022.07
2017-02-13T12:30:28.003Z,1022.06
2017-02-13T12:31:08.529Z,1022.05
2017-02-13T12:31:49.059Z,1022.12
2017-02-13T12:32:29.589Z,1022.07
2017-02-13T12:33:10.119Z,1022.05
2017-02-13T12:33:50.659Z,1022.08
2017-02-13T12:34:31.173Z,1022.08
2017-02-13T12:35:11.760Z,1022.06
2017-02-13T12:35:52.275Z,1022.03
2017-02-13T12:36:32.797Z,1021.98
2017-02-13T12:37:13.335Z,1022.04
2017-02-13T12:37:53.870Z,1022.01
2017-02-13T12:38:34.410Z,1021.98
2017-02-13T12:39:14.922Z,1021.97
2017-02-13T12:39:55.468Z,1021.99
2017-02-13T12:40:36.009Z,1021.98
2017-02-13T12:41:16.548Z,1021.94
2017-02-13T12:41:57.094Z,1021.97
2017-02-13T12:42:37.614Z,1021.97
2017-02-13T12:43:18.136Z,1021.92
2017-02-13T12:44:39.216Z,1022
2017-02-13T12:45:31.450Z,1022.05
2017-02-13T12:45:31.457Z,1022.03
2017-02-13T12:46:00.283Z,1021.98
2017-02-13T12:46:40.816Z,1021.97
2017-02-13T12:47:21.331Z,1022
2017-02-13T12:48:01.854Z,1021.97
2017-02-13T12:48:42.388Z,1021.94
2017-02-13T12:49:22.928Z,1021.98
2017-02-13T12:50:03.483Z,1022.01
2017-02-13T12:50:44.019Z,1021.96
2017-02-13T12:51:24.574Z,1021.91
2017-02-13T12:52:05.107Z,1021.99
2017-02-13T12:52:45.630Z,1021.89
2017-02-13T12:53:26.151Z,1021.89
2017-02-13T12:54:06.670Z,1021.89
2017-02-13T12:54:47.193Z,1021.84
2017-02-13T12:55:27.787Z,1021.88
2017-02-13T12:56:08.323Z,1021.88
2017-02-13T12:56:48.851Z,1021.94
2017-02-13T12:57:29.405Z,1021.9
2017-02-13T12:58:09.937Z,1021.9
2017-02-13T12:58:50.487Z,1021.87
2017-02-13T12:59:30.999Z,1021.85
2017-02-13T13:00:11.528Z,1021.89
2017-02-13T13:00:52.044Z,1021.8
2017-02-13T13:01:32.574Z,1021.89
2017-02-13T13:02:13.110Z,1021.91
2017-02-13T13:02:53.640Z,1021.86
2017-02-13T13:03:34.186Z,1021.89
2017-02-13T13:04:14.707Z,1021.91
2017-02-13T13:04:55.228Z,1021.9
2017-02-13T13:05:35.758Z,1021.84
2017-02-13T13:06:16.280Z,1021.78
2017-02-13T13:06:56.832Z,1021.8
2017-02-13T13:07:37.382Z,1021.82
2017-02-13T13:08:17.903Z,1021.77
2017-02-13T13:09:00.336Z,1021.77
2017-02-13T13:09:40.882Z,1021.77
2017-02-13T13:10:21.432Z,1021.8
2017-02-13T13:11:01.950Z,1021.78
2017-02-13T13:11:42.481Z,1021.82
2017-02-13T13:12:23.012Z,1021.77
2017-02-13T13:13:03.557Z,1021.72
2017-02-13T13:13:44.063Z,1021.71
2017-02-13T13:14:24.635Z,1021.71
2017-02-13T13:15:05.183Z,1021.64
2017-02-13T13:15:45.703Z,1021.69
2017-02-13T13:16:26.245Z,1021.67
2017-02-13T13:17:06.798Z,1021.64
2017-02-13T13:17:47.307Z,1021.7
2017-02-13T13:18:27.834Z,1021.65
2017-02-13T13:19:08.354Z,1021.66
2017-02-13T13:19:48.895Z,1021.62
2017-02-13T13:20:29.439Z,1021.65
2017-02-13T13:21:09.971Z,1021.59
2017-02-13T13:21:50.525Z,1021.63
2017-02-13T13:22:31.097Z,1021.63
2017-02-13T13:23:11.615Z,1021.61
2017-02-13T13:23:52.144Z,1021.52
2017-02-13T13:24:32.682Z,1021.63
2017-02-13T13:25:13.240Z,1021.74
2017-02-13T13:25:53.777Z,1021.6